Huvudsida
METAR-TAF:

METAR-TAF

Flygplatser :

Oljeplattform

Snorre A, Norge

latitud: 61-27N, longitud: 2-09E, höjd: 10 m

Aktuellt väderrapport

Denna rapport gjordes för 26 minuter sedan, klockan 18:20 UTC
Vind 30 kt från syd i byarna ända upp till 40 kt
Temperatur 6°C
Fuktighet 81%
Tryck 1026 hPa
Sikt 10 km eller mer
lätta regnskurar

METAR: ENSE 131820Z AUTO 18030G40KT 9999NDV -SHRA FEW020/// SCT040/// BKN046/// 06/03 Q1026 W///S6

Tid: 19:46 (18:46 UTC)


TAF: saknas

Aktuella väderrapporter och prognoser från 4000 flygplatser (METAR- och TAF-rapporter).

De tillgängliga stationerna syns som gula och röda prickar på kartan.

För musen över prickarna för att se namnen på stationerna.

Klicka sedan för att få väderrapporter och prognoser.

För att ändra kartan: Klicka på de gröna knapparna med ett svart kors på för att zooma in; den gröna knappen med ett streck på för att zooma ut; eller på de gröna pilarna för angränsande kartor.


METAR-TAF: